Time;durP1;ratioP1;P1;durP2;ratioP2;P2;SDS_P1;SDS_P2;PMS_P1;PMS_P2;Temp;Humidity;BMP_temperature;BMP_pressure;BME280_temperature;BME280_humidity;BME280_pressure;Samples;Min_cycle;Max_cycle;Signal;HPM_P1;HPM_P2
2022/04/26 03:37:05;;;;;;;2.70;1.50;;;;;;;17.22;51.23;96701.03;5115454;28;20395;-29
2022/04/26 03:39:35;;;;;;;3.15;1.70;;;;;;;17.19;51.21;96701.94;5115122;28;20020;-29
2022/04/26 03:42:04;;;;;;;3.38;2.13;;;;;;;17.20;50.88;96703.47;5115388;28;20019;-29
2022/04/26 03:44:30;;;;;;;2.28;1.73;;;;;;;17.20;51.09;96698.75;5114903;28;20059;-30
2022/04/26 03:46:56;;;;;;;2.72;1.73;;;;;;;17.16;51.30;96702.91;5114917;28;20027;-29
2022/04/26 03:49:22;;;;;;;4.07;1.80;;;;;;;17.20;51.09;96708.94;5115280;28;20027;-29
2022/04/26 03:51:48;;;;;;;4.10;1.85;;;;;;;17.23;50.82;96708.03;5115023;28;20024;-30
2022/04/26 03:54:14;;;;;;;3.88;1.80;;;;;;;17.24;50.96;96699.34;5114861;28;20460;-29
2022/04/26 03:56:40;;;;;;;3.10;1.80;;;;;;;17.21;51.17;96710.47;5115178;28;20028;-29
2022/04/26 03:59:05;;;;;;;3.42;2.10;;;;;;;17.23;50.91;96705.28;5114830;28;20035;-29
2022/04/26 04:01:32;;;;;;;4.93;2.00;;;;;;;17.20;51.00;96703.47;5114923;28;20080;-29
2022/04/26 04:03:57;;;;;;;3.85;2.05;;;;;;;17.16;50.90;96708.38;5114779;28;20456;-29
2022/04/26 04:06:23;;;;;;;8.80;2.22;;;;;;;17.15;51.13;96707.63;5114587;28;20042;-29
2022/04/26 04:08:48;;;;;;;4.68;1.83;;;;;;;17.14;50.92;96714.31;5114283;28;20020;-30
2022/04/26 04:11:19;;;;;;;3.22;1.92;;;;;;;17.20;50.81;96708.94;5114641;28;20024;-29
2022/04/26 04:13:46;;;;;;;3.38;2.20;;;;;;;17.20;50.79;96711.69;5114507;28;20068;-30
2022/04/26 04:16:12;;;;;;;4.05;2.08;;;;;;;17.15;50.93;96713.09;5114540;28;20070;-29
2022/04/26 04:21:21;;;;;;;5.50;2.20;;;;;;;17.21;50.63;96710.47;5114413;28;20046;-29
2022/04/26 04:23:47;;;;;;;2.72;1.80;;;;;;;17.10;50.65;96705.50;5114598;28;20019;-29
2022/04/26 04:26:14;;;;;;;2.80;2.05;;;;;;;17.15;50.66;96720.56;5114267;28;20059;-29
2022/04/26 04:28:41;;;;;;;4.07;2.17;;;;;;;17.17;50.68;96720.84;5114485;28;20080;-29
2022/04/26 04:31:08;;;;;;;5.78;1.85;;;;;;;17.18;50.68;96722.38;5114255;28;20072;-29
2022/04/26 04:33:33;;;;;;;3.15;1.85;;;;;;;17.17;50.58;96720.84;5114095;28;20028;-30
2022/04/26 04:35:59;;;;;;;4.50;2.00;;;;;;;17.15;50.56;96729.53;5114301;28;20020;-29
2022/04/26 04:38:26;;;;;;;6.75;2.10;;;;;;;17.11;50.60;96728.19;5113830;28;20030;-29
2022/04/26 04:40:53;;;;;;;3.28;1.73;;;;;;;17.17;50.40;96729.09;5114236;28;20019;-29
2022/04/26 04:43:18;;;;;;;2.88;1.85;;;;;;;17.20;50.22;96731.63;5114110;28;20451;-29
2022/04/26 04:45:44;;;;;;;3.15;1.60;;;;;;;17.23;50.19;96727.22;5113980;28;20055;-30
2022/04/26 04:48:10;;;;;;;3.88;1.52;;;;;;;17.26;50.34;96731.78;5114158;28;20059;-29
2022/04/26 04:50:36;;;;;;;4.85;1.85;;;;;;;17.17;50.46;96732.59;5114101;28;20465;-29
2022/04/26 04:53:02;;;;;;;3.60;1.98;;;;;;;17.17;50.43;96734.56;5113716;28;20038;-29
2022/04/26 04:55:27;;;;;;;3.67;1.73;;;;;;;17.11;50.47;96737.16;5109225;28;20032;-30
2022/04/26 04:57:53;;;;;;;4.20;2.05;;;;;;;17.16;50.66;96735.78;5102882;28;20046;-29
2022/04/26 05:00:19;;;;;;;3.83;2.25;;;;;;;17.14;50.52;96738.22;5073400;28;20460;-30
2022/04/26 05:02:44;;;;;;;2.22;1.92;;;;;;;17.17;50.74;96740.81;5106294;28;20072;-29
2022/04/26 05:05:10;;;;;;;2.75;1.60;;;;;;;17.18;50.52;96734.06;5111774;28;20126;-29
2022/04/26 05:07:36;;;;;;;3.95;1.70;;;;;;;17.17;50.24;96737.31;5111629;28;20524;-29
2022/04/26 05:10:03;;;;;;;5.70;2.40;;;;;;;17.21;50.31;96732.41;5111826;28;20557;-29
2022/04/26 05:12:29;;;;;;;3.97;2.13;;;;;;;17.16;50.48;96735.78;5109804;28;20038;-29
2022/04/26 05:14:54;;;;;;;5.47;2.85;;;;;;;17.17;50.51;96731.81;5096539;28;20044;-30
2022/04/26 05:17:20;;;;;;;13.02;6.22;;;;;;;17.19;50.53;96729.34;5091093;28;20039;-29
2022/04/26 05:19:46;;;;;;;12.85;6.75;;;;;;;17.17;50.66;96731.81;5099839;28;20035;-29
2022/04/26 05:22:11;;;;;;;13.52;7.05;;;;;;;17.13;50.82;96739.44;5115724;28;20020;-30
2022/04/26 05:27:34;;;;;;;12.80;6.55;;;;;;;17.07;50.97;96736.56;5115810;28;20034;-29
2022/04/26 05:30:01;;;;;;;13.90;6.35;;;;;;;17.08;51.18;96740.06;5105056;28;20023;-29
2022/04/26 05:32:28;;;;;;;10.95;5.50;;;;;;;17.13;50.92;96742.19;5099548;28;20502;-29
2022/04/26 05:34:56;;;;;;;9.73;5.72;;;;;;;17.13;51.09;96747.66;5076991;28;20052;-30
2022/04/26 05:37:22;;;;;;;11.07;5.63;;;;;;;17.08;51.20;96745.53;5095226;28;20094;-29
2022/04/26 05:39:48;;;;;;;10.20;5.10;;;;;;;17.07;51.29;96738.53;5095259;28;20073;-29
2022/04/26 05:42:14;;;;;;;10.30;4.47;;;;;;;17.06;51.19;96743.25;5095196;28;20099;-30
2022/04/26 05:44:39;;;;;;;8.55;4.43;;;;;;;17.09;51.28;96745.06;5094664;28;20052;-29
2022/04/26 05:47:07;;;;;;;11.23;4.53;;;;;;;17.12;51.29;96746.91;5095261;28;20103;-29
2022/04/26 05:49:32;;;;;;;8.13;4.28;;;;;;;17.17;51.32;96746.28;5101643;28;20233;-29
2022/04/26 05:51:58;;;;;;;9.32;4.30;;;;;;;17.16;51.49;96746.75;5109343;28;20028;-30
2022/04/26 05:54:23;;;;;;;7.78;3.83;;;;;;;17.17;51.33;96751.00;5094821;28;20024;-29
2022/04/26 05:56:52;;;;;;;6.90;4.28;;;;;;;17.17;51.32;96751.78;5099081;28;20076;-29
2022/04/26 05:59:18;;;;;;;6.55;3.90;;;;;;;17.18;51.46;96755.28;5101671;28;20116;-29
2022/04/26 06:01:43;;;;;;;7.70;4.32;;;;;;;17.13;51.60;96758.63;5102995;28;20462;-29
2022/04/26 06:04:09;;;;;;;7.43;3.47;;;;;;;17.26;51.37;96750.22;5094924;28;20110;-29
2022/04/26 06:06:35;;;;;;;6.78;3.65;;;;;;;17.22;51.43;96755.84;5094457;28;20055;-29
2022/04/26 06:09:01;;;;;;;7.05;3.42;;;;;;;17.21;51.59;96757.81;5076281;28;20038;-29
2022/04/26 06:11:26;;;;;;;7.22;3.08;;;;;;;17.15;51.74;96759.69;5093452;28;20024;-30
2022/04/26 06:13:52;;;;;;;4.40;2.72;;;;;;;17.17;51.65;96759.22;5093898;28;20480;-30
2022/04/26 06:16:17;;;;;;;5.47;2.83;;;;;;;17.11;51.94;96763.81;5094652;28;20081;-29
2022/04/26 06:18:43;;;;;;;4.07;2.80;;;;;;;17.18;51.76;96755.28;5094490;28;20027;-29
2022/04/26 06:34:35;;;;;;;4.13;2.78;;;;;;;17.16;51.99;96771.41;5085511;27;20421;-31
2022/04/26 06:37:01;;;;;;;6.22;3.00;;;;;;;17.14;51.65;96771.88;5049978;28;20136;-31
2022/04/26 06:39:27;;;;;;;3.25;2.40;;;;;;;17.13;52.09;96764.88;5050431;28;20115;-30
2022/04/26 06:41:52;;;;;;;5.90;2.58;;;;;;;17.14;52.20;96769.13;5050332;28;20105;-30
2022/04/26 06:44:18;;;;;;;4.43;2.53;;;;;;;17.14;51.90;96769.13;5050372;28;20035;-31
2022/04/26 06:46:43;;;;;;;5.07;2.45;;;;;;;17.13;52.23;96780.53;5050134;28;20049;-30
2022/04/26 06:49:09;;;;;;;3.55;2.10;;;;;;;17.13;52.12;96786.03;5050368;28;20022;-30
2022/04/26 06:51:38;;;;;;;3.92;2.58;;;;;;;16.69;53.80;96782.91;5050416;28;20394;-30
2022/04/26 06:54:04;;;;;;;2.55;1.95;;;;;;;16.94;52.91;96779.09;5049707;28;20048;-30
2022/04/26 06:56:30;;;;;;;5.35;2.60;;;;;;;17.07;52.45;96777.66;5049424;28;20053;-30
2022/04/26 06:58:55;;;;;;;4.38;2.60;;;;;;;17.07;52.24;96783.13;5050292;28;20109;-30
2022/04/26 07:01:21;;;;;;;3.40;2.10;;;;;;;16.99;52.85;96784.69;5050173;28;20405;-31
2022/04/26 07:03:46;;;;;;;5.35;2.35;;;;;;;17.04;52.46;96772.34;5049880;28;20125;-30
2022/04/26 07:06:12;;;;;;;7.28;1.85;;;;;;;17.08;52.30;96778.41;5049861;28;20083;-30
2022/04/26 07:08:37;;;;;;;5.20;1.85;;;;;;;17.16;52.18;96769.44;5049930;28;20037;-30
2022/04/26 07:11:03;;;;;;;4.10;1.80;;;;;;;17.09;52.16;96785.41;5049877;28;20032;-31
2022/04/26 07:13:28;;;;;;;4.18;1.75;;;;;;;17.04;52.57;96780.56;5049851;28;20032;-30
2022/04/26 07:15:53;;;;;;;3.20;1.50;;;;;;;16.93;52.74;96783.03;5048870;28;20025;-30
2022/04/26 07:18:19;;;;;;;2.30;1.60;;;;;;;16.90;52.88;96783.94;5049728;28;20029;-30
2022/04/26 07:20:45;;;;;;;5.38;1.80;;;;;;;17.02;52.55;96783.78;5049628;28;20025;-30
2022/04/26 07:23:14;;;;;;;2.80;1.40;;;;;;;17.07;52.60;96787.84;5049416;28;20471;-30
2022/04/26 07:25:40;;;;;;;4.13;1.77;;;;;;;16.85;52.95;96780.59;5049762;28;20033;-30
2022/04/26 07:28:06;;;;;;;4.43;1.55;;;;;;;16.86;53.12;96781.34;5049632;28;20061;-32
2022/04/26 07:30:35;;;;;;;2.28;1.23;;;;;;;17.01;52.69;96785.00;5049631;28;20479;-30
2022/04/26 07:35:46;;;;;;;3.60;1.60;;;;;;;17.08;52.21;96778.41;5035883;28;20502;-31
2022/04/26 07:38:11;;;;;;;4.65;1.63;;;;;;;16.85;52.97;96788.81;5036085;28;20025;-30
2022/04/26 07:40:37;;;;;;;1.65;1.35;;;;;;;16.92;52.78;96782.28;5036050;28;20021;-30
2022/04/26 07:43:04;;;;;;;3.90;1.75;;;;;;;17.07;52.41;96779.63;5036107;28;20017;-30
2022/04/26 07:45:31;;;;;;;2.70;1.42;;;;;;;17.04;52.38;96783.31;5036132;28;20052;-30
2022/04/26 07:47:56;;;;;;;3.63;1.30;;;;;;;16.96;52.49;96793.06;5034468;28;20035;-30
2022/04/26 07:50:22;;;;;;;3.15;1.75;;;;;;;17.03;52.24;96787.28;5035980;28;20112;-30
2022/04/26 07:52:48;;;;;;;3.47;1.25;;;;;;;17.08;52.06;96790.13;5035815;28;20037;-31
2022/04/26 07:55:13;;;;;;;3.22;1.30;;;;;;;17.01;52.34;96789.72;5035726;28;20028;-31
2022/04/26 07:57:39;;;;;;;2.35;1.20;;;;;;;16.92;52.66;96795.22;5035813;28;20083;-30
2022/04/26 08:00:05;;;;;;;4.00;1.20;;;;;;;17.05;52.17;96790.31;5035829;28;20074;-31
2022/04/26 08:02:31;;;;;;;2.45;1.13;;;;;;;16.95;52.53;96786.06;5035498;28;20028;-31
2022/04/26 08:05:01;;;;;;;6.18;1.30;;;;;;;16.58;53.62;96796.25;5035535;28;20033;-29
2022/04/26 08:07:28;;;;;;;3.40;1.45;;;;;;;15.38;56.55;96792.50;5035944;28;20532;-29
2022/04/26 08:09:55;;;;;;;6.10;1.70;;;;;;;15.50;55.88;96801.03;5035402;28;20030;-29
2022/04/26 08:12:20;;;;;;;6.60;2.10;;;;;;;16.29;53.74;96802.19;5035464;28;20022;-29
2022/04/26 08:14:45;;;;;;;5.90;1.80;;;;;;;16.01;52.65;96804.88;5035538;28;20033;-29
2022/04/26 08:17:11;;;;;;;4.28;2.05;;;;;;;16.26;53.02;96800.34;5035545;28;20025;-29
2022/04/26 08:19:37;;;;;;;3.05;1.85;;;;;;;16.53;51.75;96805.84;5035207;28;20070;-29
2022/04/26 08:22:03;;;;;;;5.18;2.00;;;;;;;16.71;51.44;96805.88;5035142;28;20167;-29
2022/04/26 08:27:30;;;;;;;5.40;1.55;;;;;;;16.84;51.14;96805.72;5034594;28;20044;-28
2022/04/26 08:29:57;;;;;;;3.42;2.15;;;;;;;16.84;51.18;96795.50;5035277;28;20163;-29
2022/04/26 08:32:24;;;;;;;3.03;1.45;;;;;;;16.94;50.67;96811.97;5035121;28;20028;-30
2022/04/26 08:34:51;;;;;;;2.92;1.50;;;;;;;16.96;50.72;96802.03;5026160;28;20037;-29
2022/04/26 08:37:17;;;;;;;4.00;1.60;;;;;;;17.00;50.58;96805.38;5013990;28;20026;-28
2022/04/26 08:39:43;;;;;;;4.28;1.40;;;;;;;16.70;50.98;96803.59;5035217;28;20029;-30
2022/04/26 08:42:08;;;;;;;1.80;1.30;;;;;;;16.86;50.52;96811.50;5034915;28;20025;-28
2022/04/26 08:44:34;;;;;;;2.65;1.45;;;;;;;17.01;50.18;96808.88;5034880;28;20052;-29
2022/04/26 08:52:48;;;;;;;3.10;1.77;;;;;;;16.56;49.95;96815.16;5034634;28;20029;-29
2022/04/26 08:55:14;;;;;;;3.05;1.30;;;;;;;16.66;50.29;96820.19;5034756;28;20048;-29
2022/04/26 08:57:40;;;;;;;3.65;1.35;;;;;;;16.68;49.79;96817.00;5034664;28;20025;-29
2022/04/26 09:00:07;;;;;;;2.75;1.50;;;;;;;16.95;49.29;96810.72;5034511;28;20025;-29
2022/04/26 09:02:33;;;;;;;3.92;2.03;;;;;;;17.09;48.86;96801.84;5034609;28;20018;-30
2022/04/26 09:05:08;;;;;;;3.90;1.65;;;;;;;17.00;49.48;96804.63;5034208;28;20848;-29
2022/04/26 09:07:39;;;;;;;2.65;1.63;;;;;;;16.81;49.99;96810.13;5034497;28;20033;-29
2022/04/26 09:10:06;;;;;;;3.20;1.40;;;;;;;16.79;50.24;96820.78;5034575;28;20037;-30
2022/04/26 09:12:32;;;;;;;2.58;1.38;;;;;;;16.91;50.04;96812.88;5034457;28;20471;-29
2022/04/26 09:15:13;;;;;;;2.05;1.50;;;;;;;16.81;50.38;96817.59;5034355;28;20112;-29
2022/04/26 09:17:39;;;;;;;2.65;1.63;;;;;;;17.13;49.61;96816.16;5034072;28;20109;-30
2022/04/26 09:20:06;;;;;;;5.20;1.90;;;;;;;16.95;50.29;96816.19;5034104;28;20053;-29
2022/04/26 09:22:31;;;;;;;3.20;1.50;;;;;;;17.05;50.08;96818.47;5034316;28;20030;-29
2022/04/26 09:25:03;;;;;;;1.90;1.00;;;;;;;16.94;50.37;96822.91;5034183;28;20052;-30
2022/04/26 09:27:29;;;;;;;4.40;1.40;;;;;;;17.01;50.30;96819.84;5033979;28;20082;-29
2022/04/26 09:29:55;;;;;;;2.10;1.13;;;;;;;17.01;50.22;96819.84;5034139;28;20402;-29
2022/04/26 09:32:23;;;;;;;3.35;1.50;;;;;;;17.15;50.03;96819.22;5033965;28;20018;-28
2022/04/26 09:34:49;;;;;;;2.45;1.23;;;;;;;17.15;50.15;96811.75;5033913;28;20033;-29
2022/04/26 09:37:16;;;;;;;3.40;1.20;;;;;;;17.17;50.24;96819.53;5033900;28;20029;-28
2022/04/26 09:39:59;;;;;;;2.72;1.30;;;;;;;17.10;50.28;96809.63;5033578;28;20471;-29
2022/04/26 09:42:32;;;;;;;2.63;1.40;;;;;;;17.14;50.17;96804.00;5033760;28;20040;-29
2022/04/26 09:45:09;;;;;;;2.70;1.30;;;;;;;17.14;49.83;96806.72;5033794;28;20032;-29
2022/04/26 09:47:40;;;;;;;2.65;1.65;;;;;;;17.09;50.57;96818.31;5033692;28;20495;-29
2022/04/26 09:50:12;;;;;;;2.60;1.17;;;;;;;17.19;50.02;96809.59;5033719;28;20025;-29
2022/04/26 09:52:38;;;;;;;1.60;1.00;;;;;;;17.20;49.85;96811.13;5033418;28;20032;-29
2022/04/26 09:55:05;;;;;;;2.80;1.17;;;;;;;17.18;49.92;96818.31;5034018;28;20104;-29
2022/04/26 09:57:38;;;;;;;2.85;1.42;;;;;;;17.30;49.74;96822.84;5033252;28;20022;-29
2022/04/26 10:00:09;;;;;;;1.83;1.10;;;;;;;17.29;49.86;96807.63;5033463;28;20029;-30
2022/04/26 10:02:37;;;;;;;2.53;1.52;;;;;;;17.36;49.54;96804.53;5033349;28;20028;-30
2022/04/26 10:05:05;;;;;;;2.15;1.40;;;;;;;17.35;49.28;96813.97;5032469;28;20036;-29
2022/04/26 10:07:43;;;;;;;3.17;1.40;;;;;;;17.25;49.53;96820.72;5033454;28;20067;-29
2022/04/26 10:10:09;;;;;;;3.88;1.58;;;;;;;17.37;49.38;96810.78;5033354;28;20490;-31
2022/04/26 10:12:36;;;;;;;3.22;1.52;;;;;;;17.42;49.13;96807.44;5033724;28;20018;-29
2022/04/26 10:15:03;;;;;;;2.90;1.63;;;;;;;17.42;49.04;96805.44;5033547;28;20110;-30
2022/04/26 10:17:32;;;;;;;1.80;1.40;;;;;;;17.39;49.25;96808.34;5033243;28;20026;-29
2022/04/26 10:20:00;;;;;;;2.58;1.40;;;;;;;17.30;49.44;96805.63;5033230;28;20029;-29
2022/04/26 10:22:53;;;;;;;3.60;1.20;;;;;;;17.46;48.90;96808.75;5033268;28;20025;-29
2022/04/26 10:25:21;;;;;;;2.47;1.45;;;;;;;17.48;48.95;96811.81;5033265;28;20056;-30
2022/04/26 10:28:26;;;;;;;2.70;1.65;;;;;;;17.46;49.14;96806.03;5033138;28;20049;-29
2022/04/26 10:30:53;;;;;;;2.95;1.45;;;;;;;17.44;49.27;96802.22;5033249;28;20025;-30
2022/04/26 10:33:41;;;;;;;2.60;1.33;;;;;;;17.36;49.68;96806.50;5032908;28;20114;-30
2022/04/26 10:36:28;;;;;;;1.83;1.20;;;;;;;17.39;49.54;96805.59;5033090;28;20033;-30
2022/04/26 10:39:21;;;;;;;2.00;1.60;;;;;;;17.42;49.55;96813.66;5032973;28;20100;-30
2022/04/26 10:41:47;;;;;;;1.83;1.40;;;;;;;17.41;49.59;96806.66;5017528;28;20069;-30
2022/04/26 10:44:12;;;;;;;3.05;1.63;;;;;;;17.42;49.65;96805.44;5033140;28;20064;-29
2022/04/26 10:46:38;;;;;;;2.40;1.50;;;;;;;17.52;49.51;96806.16;5033244;28;20041;-29
2022/04/26 10:49:23;;;;;;;2.83;1.35;;;;;;;17.44;49.61;96799.47;5032717;28;20026;-30
2022/04/26 10:51:53;;;;;;;3.80;1.30;;;;;;;17.50;49.50;96820.34;5032837;28;20021;-29
2022/04/26 10:54:55;;;;;;;5.78;1.33;;;;;;;17.45;49.64;96818.22;5032983;28;20091;-29
2022/04/26 10:57:23;;;;;;;2.15;1.52;;;;;;;17.55;49.34;96803.25;5032954;28;20087;-30
2022/04/26 10:59:56;;;;;;;2.88;1.45;;;;;;;17.53;49.18;96808.44;5032873;28;20099;-29
2022/04/26 11:02:23;;;;;;;2.72;1.50;;;;;;;17.48;49.31;96811.81;5032903;28;20418;-29
2022/04/26 11:05:08;;;;;;;2.70;1.73;;;;;;;17.51;49.31;96808.16;5032693;28;20053;-29
2022/04/26 11:07:35;;;;;;;6.68;2.20;;;;;;;17.57;49.16;96809.03;5033127;28;20475;-30
2022/04/26 11:10:04;;;;;;;5.25;2.20;;;;;;;17.53;49.16;96800.22;5035108;28;20112;-29
2022/04/26 11:12:33;;;;;;;16.45;10.35;;;;;;;17.40;47.71;96804.38;5036614;28;20013;-29
2022/04/26 11:15:01;;;;;;;31.48;20.42;;;;;;;17.70;46.26;96811.59;5036663;28;20357;-30
2022/04/26 11:17:29;;;;;;;18.63;11.10;;;;;;;17.65;45.68;96808.72;5036073;28;20055;-28
2022/04/26 11:19:59;;;;;;;24.25;13.73;;;;;;;17.69;46.05;96815.56;5036484;28;20017;-29
2022/04/26 11:22:27;;;;;;;25.10;15.88;;;;;;;17.73;45.63;96805.19;5036241;28;20477;-29
2022/04/26 11:28:00;;;;;;;45.03;24.63;;;;;;;17.86;45.96;96810.47;5036162;28;20109;-30
2022/04/26 11:30:44;;;;;;;38.28;21.30;;;;;;;17.79;46.37;96813.56;5036319;28;20463;-29
2022/04/26 11:33:22;;;;;;;37.13;22.67;;;;;;;17.85;46.31;96814.41;5035972;28;20091;-29
2022/04/26 11:36:01;;;;;;;37.42;24.27;;;;;;;17.80;46.80;96798.63;5036036;28;20030;-29
2022/04/26 11:38:28;;;;;;;44.58;26.15;;;;;;;17.73;46.83;96798.94;5035981;28;20025;-29
2022/04/26 11:40:58;;;;;;;39.35;24.75;;;;;;;17.74;47.17;96801.22;5035994;28;20463;-29
2022/04/26 11:43:27;;;;;;;33.83;23.45;;;;;;;17.73;47.36;96804.41;5035181;28;20120;-28
2022/04/26 11:45:55;;;;;;;29.90;20.73;;;;;;;17.76;46.86;96798.78;5035816;28;20053;-29
2022/04/26 11:48:22;;;;;;;35.55;23.20;;;;;;;17.73;47.39;96796.19;5035880;28;20025;-30
2022/04/26 11:50:49;;;;;;;26.67;16.58;;;;;;;17.73;47.25;96804.41;5036019;28;20554;-29
2022/04/26 11:53:26;;;;;;;14.32;10.27;;;;;;;17.64;47.00;96805.22;5035395;28;20049;-29
2022/04/26 11:55:53;;;;;;;14.27;9.48;;;;;;;17.74;46.35;96797.72;5035299;28;20075;-30
2022/04/26 11:58:20;;;;;;;11.68;7.45;;;;;;;17.81;46.32;96797.38;5035558;28;20096;-30
2022/04/26 12:01:05;;;;;;;11.88;8.23;;;;;;;17.82;46.36;96804.38;5035609;28;20060;-29
2022/04/26 12:03:30;;;;;;;13.52;7.10;;;;;;;17.86;46.43;96802.22;5035650;28;20021;-29
2022/04/26 12:06:07;;;;;;;11.15;8.15;;;;;;;17.79;46.90;96803.34;5035654;28;20075;-30
2022/04/26 12:08:43;;;;;;;13.40;8.48;;;;;;;17.84;46.60;96799.19;5035673;28;20096;-29
2022/04/26 12:11:23;;;;;;;6.88;5.47;;;;;;;17.80;46.74;96798.63;5035500;28;20463;-29
2022/04/26 12:14:11;;;;;;;10.10;5.68;;;;;;;17.87;46.33;96790.03;5035529;28;20029;-29
2022/04/26 12:20:09;;;;;;;7.80;5.30;;;;;;;17.86;46.80;96786.53;5035339;28;20040;-29
2022/04/26 12:22:37;;;;;;;6.70;4.53;;;;;;;17.79;47.00;96792.38;5035243;28;20025;-29
2022/04/26 12:25:14;;;;;;;6.85;4.13;;;;;;;17.82;47.14;96785.16;5035289;28;20116;-29
2022/04/26 12:27:43;;;;;;;6.88;4.53;;;;;;;17.78;46.94;96798.31;5034771;28;20021;-29
2022/04/26 12:30:11;;;;;;;7.05;4.53;;;;;;;17.84;46.49;96785.47;5035005;28;20029;-29
2022/04/26 12:32:41;;;;;;;5.75;3.85;;;;;;;17.94;46.71;96775.94;5034936;28;20179;-29
2022/04/26 12:35:09;;;;;;;5.15;3.90;;;;;;;17.87;46.54;96776.31;5033695;28;20029;-29
2022/04/26 12:37:34;;;;;;;6.60;3.53;;;;;;;17.92;46.88;96772.94;5035054;28;20219;-31
2022/04/26 12:43:29;;;;;;;4.82;3.40;;;;;;;17.95;46.62;96766.50;5034408;28;20048;-30
2022/04/26 12:46:03;;;;;;;7.45;4.10;;;;;;;18.00;47.13;96774.09;5033673;28;20087;-29
2022/04/26 12:51:17;;;;;;;5.25;3.97;;;;;;;17.92;46.79;96776.44;5035202;28;20527;-30
2022/04/26 12:53:45;;;;;;;4.63;2.53;;;;;;;17.97;46.67;96774.25;5034977;28;20449;-30
2022/04/26 12:56:11;;;;;;;6.07;3.90;;;;;;;17.98;46.82;96782.03;5034616;28;20031;-29
2022/04/26 12:58:42;;;;;;;4.47;2.88;;;;;;;17.85;46.91;96768.53;5034569;28;20017;-30
2022/04/26 13:01:08;;;;;;;3.63;2.40;;;;;;;17.90;47.09;96773.41;5033173;28;20395;-30
2022/04/26 13:03:35;;;;;;;5.57;3.22;;;;;;;17.91;46.91;96763.19;5034442;28;20075;-29
2022/04/26 13:06:17;;;;;;;3.95;2.92;;;;;;;17.92;46.77;96762.72;5034626;28;20033;-29
2022/04/26 13:09:38;;;;;;;4.35;2.40;;;;;;;17.91;46.83;96754.97;5034554;28;20053;-29
2022/04/26 13:12:05;;;;;;;2.15;1.88;;;;;;;17.81;47.02;96759.72;5034404;28;20080;-30
2022/04/26 13:14:40;;;;;;;2.63;1.75;;;;;;;17.93;46.89;96760.72;5034150;28;20048;-30
2022/04/26 13:17:07;;;;;;;3.30;1.95;;;;;;;18.03;46.63;96761.44;5033971;28;20100;-30
2022/04/26 13:22:54;;;;;;;3.35;1.90;;;;;;;17.93;46.89;96761.47;5034101;28;20056;-29
2022/04/26 13:25:19;;;;;;;3.70;2.03;;;;;;;18.02;46.74;96751.69;5032599;28;20029;-29
2022/04/26 13:27:48;;;;;;;2.03;1.52;;;;;;;17.98;47.00;96749.09;5034030;28;20064;-29
2022/04/26 13:30:17;;;;;;;2.10;1.60;;;;;;;18.01;46.48;96744.66;5034086;28;20029;-30
2022/04/26 13:32:43;;;;;;;2.55;1.40;;;;;;;17.98;46.25;96740.88;5033161;28;20038;-29
2022/04/26 13:35:56;;;;;;;4.07;1.63;;;;;;;17.98;46.45;96748.34;5033971;28;20032;-29
2022/04/26 13:38:21;;;;;;;3.10;1.75;;;;;;;18.03;46.41;96728.50;5033754;28;20032;-29
2022/04/26 13:40:48;;;;;;;1.98;1.30;;;;;;;18.01;45.86;96741.94;5034133;28;20029;-29
2022/04/26 13:43:13;;;;;;;2.40;1.40;;;;;;;17.99;46.42;96738.88;5033714;28;20487;-29
2022/04/26 13:45:39;;;;;;;2.58;1.80;;;;;;;18.00;46.28;96730.19;5033632;28;20055;-29
2022/04/26 13:48:09;;;;;;;4.40;1.48;;;;;;;18.04;46.17;96746.50;5033717;28;20029;-29
2022/04/26 13:50:35;;;;;;;2.15;1.33;;;;;;;18.06;46.41;96742.03;5033841;28;20033;-30
2022/04/26 13:53:01;;;;;;;2.67;1.20;;;;;;;18.04;46.16;96749.22;5033424;28;20022;-30
2022/04/26 13:55:26;;;;;;;2.88;1.23;;;;;;;17.99;46.29;96738.88;5033641;28;20116;-30
2022/04/26 13:57:53;;;;;;;1.85;1.05;;;;;;;17.87;46.90;96744.16;5033512;28;20049;-29
2022/04/26 14:00:19;;;;;;;4.30;1.40;;;;;;;18.01;46.13;96742.69;5033565;28;20501;-29
2022/04/26 14:02:46;;;;;;;1.98;1.13;;;;;;;18.03;45.76;96737.50;5033509;28;20056;-29
2022/04/26 14:05:12;;;;;;;1.58;1.00;;;;;;;18.12;45.82;96740.16;5033717;28;20056;-29
2022/04/26 14:07:37;;;;;;;2.28;1.13;;;;;;;18.07;45.81;96740.81;5033506;28;20061;-29
2022/04/26 14:10:04;;;;;;;2.05;1.10;;;;;;;18.12;45.79;96751.16;5032070;28;20030;-30
2022/04/26 14:12:29;;;;;;;6.30;1.15;;;;;;;18.07;45.73;96727.09;5033261;28;20063;-29
2022/04/26 14:23:06;;;;;;;1.85;1.00;;;;;;;18.11;45.64;96746.88;5033403;28;20087;-29
2022/04/26 14:25:32;;;;;;;2.25;1.40;;;;;;;18.09;45.59;96754.81;5033603;28;20124;-29
2022/04/26 14:27:57;;;;;;;2.85;1.10;;;;;;;18.04;45.64;96752.75;5032983;28;20029;-30
2022/04/26 14:30:23;;;;;;;3.08;1.23;;;;;;;18.10;45.50;96753.59;5033243;28;20033;-30
2022/04/26 14:32:49;;;;;;;2.70;1.30;;;;;;;18.06;45.49;96757.72;5032906;28;20160;-31
2022/04/26 14:35:17;;;;;;;1.67;1.10;;;;;;;18.20;45.07;96768.00;5033153;28;20099;-29
2022/04/26 14:37:43;;;;;;;1.33;0.80;;;;;;;18.19;45.16;96752.75;5033103;28;20032;-29
2022/04/26 14:40:09;;;;;;;1.75;0.90;;;;;;;18.19;45.08;96752.75;5033071;28;20025;-29
2022/04/26 14:42:35;;;;;;;2.88;1.10;;;;;;;18.27;44.96;96746.47;5033012;28;20029;-30
2022/04/26 14:45:53;;;;;;;4.45;2.05;;;;;;;17.94;45.15;96754.00;5035164;28;20117;-31
2022/04/26 14:48:19;;;;;;;5.20;2.17;;;;;;;17.97;45.44;96753.06;5037081;28;20023;-30
2022/04/26 14:50:45;;;;;;;4.78;2.40;;;;;;;18.27;44.97;96748.44;5036931;28;20112;-29
2022/04/26 14:53:11;;;;;;;8.70;2.90;;;;;;;18.20;45.25;96760.53;5037525;28;20108;-30
2022/04/26 14:55:36;;;;;;;8.98;3.53;;;;;;;18.30;45.12;96752.97;5036882;28;20029;-29
2022/04/26 14:58:02;;;;;;;8.60;4.68;;;;;;;18.21;45.43;96759.31;5035312;28;20048;-29
2022/04/26 15:00:28;;;;;;;8.07;4.10;;;;;;;18.26;45.17;96757.91;5036424;28;20094;-30
2022/04/26 15:02:53;;;;;;;8.88;3.75;;;;;;;18.24;45.04;96754.88;5035743;28;20100;-29
2022/04/26 15:05:19;;;;;;;6.82;3.90;;;;;;;18.19;44.61;96753.53;5036321;28;20076;-29
2022/04/26 15:10:29;;;;;;;5.50;3.30;;;;;;;18.33;44.40;96765.03;5036676;28;20052;-29
2022/04/26 15:18:22;;;;;;;5.05;3.03;;;;;;;18.15;45.21;96749.47;5036432;28;20056;-29
2022/04/26 15:20:51;;;;;;;4.95;2.47;;;;;;;18.09;45.48;96743.84;5036494;28;20502;-31
2022/04/26 15:23:18;;;;;;;5.10;2.85;;;;;;;18.10;45.29;96745.38;5036450;28;20013;-30
2022/04/26 15:25:50;;;;;;;5.63;2.60;;;;;;;18.06;45.63;96738.53;5036464;28;20037;-30
2022/04/26 15:28:19;;;;;;;6.22;2.50;;;;;;;18.16;45.66;96740.75;5036457;28;20032;-29
2022/04/26 15:30:45;;;;;;;6.05;3.13;;;;;;;18.16;45.57;96746.25;5036135;28;20025;-29
2022/04/26 15:33:14;;;;;;;5.00;2.35;;;;;;;18.09;46.14;96732.09;5035968;28;20549;-29
2022/04/26 15:35:39;;;;;;;3.83;2.40;;;;;;;18.18;45.83;96741.03;5036150;28;20033;-31
2022/04/26 15:38:07;;;;;;;4.35;2.10;;;;;;;18.14;46.23;96732.22;5036127;28;20017;-29
2022/04/26 15:40:34;;;;;;;6.05;2.30;;;;;;;18.05;46.44;96724.03;5036103;28;20071;-29
2022/04/26 15:43:00;;;;;;;3.25;2.05;;;;;;;18.15;46.43;96730.25;5035966;28;20028;-29
2022/04/26 15:45:25;;;;;;;4.03;2.20;;;;;;;18.13;46.32;96733.47;5036336;28;20367;-30
2022/04/26 15:47:51;;;;;;;4.43;1.88;;;;;;;18.10;46.59;96723.41;5035950;28;20035;-29
2022/04/26 15:50:18;;;;;;;3.95;1.95;;;;;;;18.10;46.80;96728.91;5035643;28;20029;-29
2022/04/26 15:52:43;;;;;;;4.90;2.20;;;;;;;18.02;46.92;96726.97;5036084;28;20528;-29
2022/04/26 15:55:09;;;;;;;3.00;1.70;;;;;;;18.00;47.05;96718.44;5035494;28;20025;-29
2022/04/26 15:57:35;;;;;;;4.78;2.30;;;;;;;17.97;47.50;96722.88;5035698;28;20116;-30
2022/04/26 16:00:01;;;;;;;3.72;2.35;;;;;;;17.79;47.81;96725.75;5035657;28;20033;-29
2022/04/26 16:02:27;;;;;;;5.57;1.67;;;;;;;17.82;47.77;96733.03;5035696;28;20033;-30
2022/04/26 16:04:52;;;;;;;3.05;1.80;;;;;;;17.86;47.68;96730.88;5035925;28;20026;-29
2022/04/26 16:07:18;;;;;;;4.00;1.90;;;;;;;17.88;47.51;96723.72;5035522;28;20029;-29
2022/04/26 16:20:39;;;;;;;6.65;3.55;;;;;;;17.87;48.57;96704.97;5035595;28;20121;-29
2022/04/26 16:23:06;;;;;;;7.32;4.32;;;;;;;17.90;48.87;96715.78;5035406;28;20139;-29
2022/04/26 16:25:32;;;;;;;5.78;2.88;;;;;;;18.02;48.09;96710.53;5035238;28;20060;-29
2022/04/26 16:28:00;;;;;;;6.65;2.92;;;;;;;18.06;48.13;96711.84;5035044;28;20044;-29